»·PEaware :: N512PC KSNA-KAVX

N512PC :: KSNA-KAVX

FLIGHT INFORMATION

Flight Status: Arrived
Operator: Privately registered:
United States
More flights under this callsign
Pilot: Jacob V. (20481)
Aircraft: CESSNA 172 SKYHAWK
(C172)
More flights by this aircraft type
Origin: KSNA John Wayne-Orange Co
United States
Destination: KAVX Catalina
United States
More flights between these airports :: More routes between these airports
Route: SLI V21 SXC
File this flight plan on PilotEdge
Remarks:
Altitude:
(Current/Filed)
4,500ft
Speed:
(Current/Filed)
110kts
Departed: 07-Oct-18 08:38 PM
Arrived: 07-Oct-18 09:16 PM
Distance/Time
Traveled:
32nm/0:37
Distance/Time
To Go:
Arrived

Flight Plot

Page will automatically refresh every two minutes.


Map Options




Map Legend


Flown Route
Filed Route
Departure Airport
Arrival Airport
Navaid (VOR, NDB)
Fix

Horizontal Profiles

Position Reports

Time Latitude Longitude Heading Altitude Ground
Speed
07-Oct-18 20:19 33.671596 -117.867559 208 50ft 0kts
07-Oct-18 20:20 33.671596 -117.867559 208 50ft 0kts
07-Oct-18 20:21 33.671596 -117.867559 208 50ft 0kts
07-Oct-18 20:22 33.671596 -117.867559 208 50ft 0kts
07-Oct-18 20:23 33.671596 -117.867559 208 50ft 0kts
07-Oct-18 20:24 33.671596 -117.867559 208 50ft 0kts
07-Oct-18 20:25 33.671596 -117.867559 208 50ft 0kts
07-Oct-18 20:26 33.671596 -117.867559 208 50ft 0kts
07-Oct-18 20:27 33.671557 -117.867583 206 50ft 0kts
07-Oct-18 20:28 33.671557 -117.867583 206 50ft 0kts
07-Oct-18 20:29 33.671557 -117.867583 206 50ft 0kts
07-Oct-18 20:30 33.672585 -117.867826 31 50ft 13kts
07-Oct-18 20:31 33.675421 -117.866259 26 47ft 17kts
07-Oct-18 20:32 33.679374 -117.863747 26 40ft 10kts
07-Oct-18 20:33 33.679948 -117.863597 297 40ft 0kts
07-Oct-18 20:34 33.679948 -117.863597 297 40ft 0kts
07-Oct-18 20:35 33.679948 -117.863598 296 40ft 0kts
07-Oct-18 20:36 33.679948 -117.863597 297 40ft 0kts
07-Oct-18 20:37 33.679948 -117.863597 297 40ft 0kts
07-Oct-18 20:38 33.679948 -117.863597 297 40ft 0kts
07-Oct-18 20:39 33.679782 -117.864409 213 40ft 0kts
07-Oct-18 20:40 33.669394 -117.871328 211 382ft 75kts
07-Oct-18 20:41 33.656029 -117.887905 230 1242ft 73kts
07-Oct-18 20:42 33.643541 -117.910167 233 1860ft 90kts
07-Oct-18 20:43 33.630744 -117.930673 234 2677ft 76kts
07-Oct-18 20:44 33.618543 -117.953220 248 3286ft 84kts
07-Oct-18 20:45 33.606107 -117.976839 229 3880ft 86kts
07-Oct-18 20:46 33.591636 -118.003186 240 4003ft 99kts
07-Oct-18 20:47 33.577167 -118.031503 239 4003ft 99kts
07-Oct-18 20:48 33.562846 -118.059204 239 4003ft 99kts
07-Oct-18 20:49 33.548623 -118.087487 245 4002ft 99kts
07-Oct-18 20:50 33.534310 -118.115356 237 4007ft 99kts
07-Oct-18 20:51 33.519388 -118.143149 239 4011ft 99kts
07-Oct-18 20:52 33.504790 -118.171152 239 4016ft 98kts
07-Oct-18 20:53 33.490313 -118.198991 239 4020ft 98kts
07-Oct-18 20:54 33.475641 -118.227215 239 3997ft 100kts
07-Oct-18 20:55 33.461040 -118.255279 239 4001ft 99kts
07-Oct-18 20:56 33.446476 -118.283220 240 4005ft 98kts
07-Oct-18 20:57 33.431896 -118.311219 240 4007ft 98kts
07-Oct-18 20:58 33.417336 -118.339107 240 4009ft 98kts
07-Oct-18 20:59 33.402779 -118.366985 240 4009ft 99kts
07-Oct-18 21:00 33.388211 -118.394875 240 4009ft 99kts
07-Oct-18 21:01 33.383549 -118.423294 323 4004ft 100kts
07-Oct-18 21:02 33.411134 -118.416105 9 4009ft 105kts
07-Oct-18 21:03 33.436348 -118.410980 4 4009ft 105kts
07-Oct-18 21:04 33.465370 -118.407041 0 3917ft 108kts
07-Oct-18 21:05 33.497267 -118.404534 1 3418ft 119kts
07-Oct-18 21:06 33.520562 -118.420301 312 3436ft 97kts
07-Oct-18 21:07 33.539938 -118.443453 319 3434ft 99kts
07-Oct-18 21:08 33.554031 -118.425398 127 3431ft 107kts
07-Oct-18 21:09 33.531440 -118.404202 186 3431ft 102kts
07-Oct-18 21:10 33.503342 -118.407820 184 3436ft 102kts
07-Oct-18 21:11 33.477312 -118.407982 183 3435ft 86kts
07-Oct-18 21:12 33.455357 -118.405157 142 3433ft 76kts
07-Oct-18 21:13 33.437596 -118.399833 196 3375ft 67kts
07-Oct-18 21:14 33.418246 -118.406907 193 2947ft 78kts
07-Oct-18 21:15 33.398013 -118.416684 214 2465ft 80kts
07-Oct-18 21:16 33.394082 -118.430560 16 2058ft 77kts
07-Oct-18 21:17 33.405723 -118.414482 48 1535ft 43kts
07-Oct-18 21:18 33.407216 -118.411361 203 1499ft 0kts
07-Oct-18 21:19 33.406718 -118.412156 235 1508ft 8kts
07-Oct-18 21:20 33.404144 -118.414985 182 1544ft 11kts

Navigation Log

Ident Type
Flight plan parsing failed, navigation log unavailable